الصفحة الرئيسية
METAR-TAF:

METAR-TAF

مطار :

جوهر بهرو, ماليزيا

دائرة عرض: 01-38N, خط طول: 103-40E, ارتفاع: 37 متر

مراقبة الطقس الحالي

تاريخ ووقت الإصدار 55 دقيقة قبل الساعة 01:00UTC
ريح 1 عقدةمن اتجاهات متغيرة
درجة الحرارة 28°درجة مئوية
الرطوبة 84%
ضغط 1011 hPa
الرؤية: 8000 متر
غيوم قليلة على ارتفاع 1700 قدم, مزنة ركامية.
غيوم متفرقة على ارتفاع 1800 قدم
عاصفة رعدية

METAR: WMKJ 190100Z VRB01KT 8000 TS FEW017CB SCT018 28/25 Q1011

زمن: 09:55 (01:55 UTC)

توقعات

تاريخ ووقت الإصدار 1ساعة و 5 دقيقة قبل الساعة 00:50UTC
التوقعات صالحة من19 الساعة 00 UTC إلى 20 الساعة 00 UTC
ريح 5 عقدة من الجنوب/الجنوب الشرقي
الرؤية 10 كم أو أكثر
غيوم قليلة على ارتفاع 1700 قدم, مزنة ركامية.
مؤقت
من 19 الساعة 01 UTC إلى 19 الساعة 06 UTC
الرؤية: 3000 متر
غيوم قليلة على ارتفاع 1000 قدم
غيوم قليلة على ارتفاع 1500 قدم, مزنة ركامية.
غيوم متفرقة على ارتفاع 1800 قدم
عاصفة رعدية, مطر

TAF: WMKJ 190050Z 1900/2000 15005KT 9999 FEW017CB TEMPO 1901/1906 3000 TSRA FEW010 FEW015CB SCT018

أرصاد الطقس والتوقعات من أكثر من 4000 مطار (تقارير الطقس للمطار METAR والتنبؤ بالطقس بالمطارTAF).

المحطات المتاحة هي النقط الصفراء والحمراء على الخريطة.

حرك المؤشر فوق النقطة لمعرفة اسم المحطة.

ثم انقر لمعرفة أرصاد وتوقعات الطقس.

لتغيير الخارطة: اضغط على الأزرار الخضراء مع رمز الصليب الأسود للتكبير. على الزر الأخضر مع شرطة للتصغير، أو على الأسهم الخضراء للخرائط المجاورة.


METAR-TAF: